Terminal Aerodrome Forecast
Issued by NWS

Home | Current Version | Previous Version | Graphics & Text | Print | Product List | Glossary On
Versions: 1 2 3 4 5 6 7 8 9 10 11 12
000
FTUS43 KMPX 021120
TAFAXN
TAF
KAXN 021120Z 0212/0312 17004KT P6SM FEW080 BKN150
     FM021700 18009KT P6SM FEW040 BKN150
     FM030000 17005KT P6SM SCT200=

USA.gov is the U.S. government's official web portal to all federal, state and local government web resources and services.